Time;durP1;ratioP1;P1;durP2;ratioP2;P2;SDS_P1;SDS_P2;PMS_P1;PMS_P2;Temp;Humidity;BMP_temperature;BMP_pressure;BME280_temperature;BME280_humidity;BME280_pressure;Samples;Min_cycle;Max_cycle;Signal;HPM_P1;HPM_P2
2021/05/28 00:00:52;;;;;;;1.80;1.70;;;15.40;36.00;;;;;;10400620;28;20221;-69
2021/05/28 00:05:54;;;;;;;2.10;1.90;;;15.40;36.20;;;;;;10408556;28;20222;-70
2021/05/28 00:10:57;;;;;;;2.30;1.90;;;15.40;36.10;;;;;;10408668;28;20236;-69
2021/05/28 00:16:02;;;;;;;2.07;1.97;;;15.40;36.10;;;;;;10408431;28;20277;-69
2021/05/28 00:21:05;;;;;;;2.93;1.90;;;15.50;36.40;;;;;;10408195;28;20224;-69
2021/05/28 00:26:08;;;;;;;2.20;2.00;;;15.50;36.20;;;;;;10408153;28;20244;-69
2021/05/28 00:31:11;;;;;;;2.37;1.80;;;15.50;36.00;;;;;;10408046;28;20229;-69
2021/05/28 00:36:14;;;;;;;2.10;1.83;;;15.50;36.10;;;;;;10407730;28;20317;-69
2021/05/28 00:41:17;;;;;;;2.00;1.80;;;15.50;36.10;;;;;;10407714;28;20389;-69
2021/05/28 00:46:23;;;;;;;2.17;2.07;;;15.50;36.10;;;;;;10407481;28;20230;-69
2021/05/28 00:51:26;;;;;;;2.80;2.20;;;15.50;36.20;;;;;;10407675;28;20230;-69
2021/05/28 00:56:28;;;;;;;2.40;2.20;;;15.50;36.10;;;;;;10407157;28;20308;-69
2021/05/28 01:01:33;;;;;;;1.90;1.80;;;15.60;36.20;;;;;;10407041;28;20340;-69
2021/05/28 01:06:37;;;;;;;2.27;2.07;;;15.60;36.40;;;;;;10407010;28;20317;-69
2021/05/28 01:11:39;;;;;;;2.43;2.23;;;15.60;36.30;;;;;;10407408;28;20236;-69
2021/05/28 01:16:43;;;;;;;2.60;2.20;;;15.60;36.40;;;;;;10391718;28;20230;-69
2021/05/28 01:21:47;;;;;;;3.20;2.50;;;15.50;36.50;;;;;;10379535;28;20293;-69
2021/05/28 01:26:50;;;;;;;2.50;2.30;;;15.60;36.70;;;;;;10406483;28;20226;-69
2021/05/28 01:31:53;;;;;;;2.30;2.20;;;15.40;36.70;;;;;;10406592;28;20231;-69
2021/05/28 01:36:56;;;;;;;2.37;2.17;;;15.30;36.50;;;;;;10406731;28;20230;-69
2021/05/28 01:42:00;;;;;;;2.40;2.20;;;15.30;36.70;;;;;;10406270;28;20225;-69
2021/05/28 01:47:02;;;;;;;2.10;2.00;;;15.30;36.90;;;;;;10406117;28;20233;-69
2021/05/28 01:52:06;;;;;;;2.57;2.37;;;15.20;36.70;;;;;;10406362;28;20754;-68
2021/05/28 01:57:12;;;;;;;2.70;2.20;;;15.10;36.70;;;;;;10408181;28;20242;-70
2021/05/28 02:02:15;;;;;;;2.70;2.50;;;15.00;36.90;;;;;;10413631;28;20248;-69
2021/05/28 02:07:17;;;;;;;2.23;2.10;;;14.80;36.80;;;;;;10413719;28;20255;-69
2021/05/28 02:12:22;;;;;;;2.60;2.40;;;14.70;36.90;;;;;;10413301;28;20328;-68
2021/05/28 02:17:25;;;;;;;2.40;2.20;;;14.60;37.20;;;;;;10413294;28;20232;-69
2021/05/28 02:22:27;;;;;;;2.37;2.20;;;14.50;37.10;;;;;;10412708;28;20308;-69
2021/05/28 02:27:31;;;;;;;2.17;2.07;;;14.50;37.00;;;;;;10412681;28;20320;-69
2021/05/28 02:32:34;;;;;;;3.77;2.67;;;14.50;37.30;;;;;;10380557;28;20305;-69
2021/05/28 02:37:37;;;;;;;2.50;2.30;;;14.50;37.20;;;;;;10412062;28;20699;-69
2021/05/28 02:42:41;;;;;;;2.37;2.27;;;14.50;37.40;;;;;;10412157;28;20221;-69
2021/05/28 02:47:44;;;;;;;2.77;2.57;;;14.50;37.40;;;;;;10412017;28;20233;-69
2021/05/28 02:52:47;;;;;;;2.80;2.00;;;14.50;37.40;;;;;;10411250;28;20232;-68
2021/05/28 02:57:50;;;;;;;3.23;1.90;;;14.50;37.30;;;;;;10409646;28;20283;-68
2021/05/28 03:02:53;;;;;;;2.47;2.20;;;14.50;37.30;;;;;;10411155;28;20245;-68
2021/05/28 03:07:56;;;;;;;2.40;2.00;;;14.50;37.20;;;;;;10409805;28;20230;-69
2021/05/28 03:12:59;;;;;;;2.23;2.07;;;14.50;37.10;;;;;;10410654;28;20313;-69
2021/05/28 03:18:03;;;;;;;1.90;1.80;;;14.50;37.40;;;;;;10376204;28;20256;-69
2021/05/28 03:23:06;;;;;;;4.50;2.13;;;14.50;37.30;;;;;;10369585;28;20703;-69
2021/05/28 03:28:10;;;;;;;2.70;2.50;;;14.50;37.40;;;;;;10369313;28;20254;-68
2021/05/28 03:33:12;;;;;;;2.87;2.67;;;14.50;38.60;;;;;;10369127;28;20707;-69
2021/05/28 03:38:15;;;;;;;3.23;2.57;;;14.40;37.50;;;;;;10390080;28;20238;-69
2021/05/28 03:43:19;;;;;;;2.33;2.23;;;14.40;37.70;;;;;;10409771;28;20249;-69
2021/05/28 03:48:22;;;;;;;2.40;2.30;;;14.30;37.80;;;;;;10409640;28;20237;-69
2021/05/28 03:53:24;;;;;;;3.30;3.00;;;14.30;37.90;;;;;;10409295;28;20241;-69
2021/05/28 03:58:28;;;;;;;3.50;3.30;;;14.20;37.90;;;;;;10408917;28;20973;-69
2021/05/28 04:03:30;;;;;;;3.10;2.80;;;14.20;38.20;;;;;;10408969;28;20308;-69
2021/05/28 04:08:33;;;;;;;3.20;2.70;;;14.10;38.00;;;;;;10395050;28;20233;-69
2021/05/28 04:13:37;;;;;;;3.20;2.87;;;14.00;38.20;;;;;;10367700;28;20777;-69
2021/05/28 04:18:39;;;;;;;3.50;3.13;;;14.00;38.60;;;;;;10393051;28;20228;-68
2021/05/28 04:23:42;;;;;;;3.13;2.93;;;14.00;38.50;;;;;;10367480;28;20271;-69
2021/05/28 04:28:46;;;;;;;3.60;3.23;;;14.00;38.70;;;;;;10367170;28;20226;-68
2021/05/28 04:33:49;;;;;;;3.30;3.00;;;13.90;39.00;;;;;;10407195;28;20229;-68
2021/05/28 04:38:52;;;;;;;5.07;3.60;;;13.90;39.00;;;;;;10402757;28;20226;-68
2021/05/28 04:43:55;;;;;;;3.53;2.67;;;13.90;39.10;;;;;;10407516;28;20229;-68
2021/05/28 04:48:58;;;;;;;3.77;3.47;;;13.90;39.40;;;;;;10407527;28;20301;-69
2021/05/28 04:54:00;;;;;;;3.17;2.93;;;13.90;39.40;;;;;;10406945;28;20608;-69
2021/05/28 04:59:04;;;;;;;5.43;3.43;;;13.90;40.10;;;;;;10381266;28;20230;-69
2021/05/28 05:04:07;;;;;;;3.80;3.50;;;14.00;40.00;;;;;;10384332;28;20305;-69
2021/05/28 05:09:09;;;;;;;3.37;3.13;;;14.00;39.70;;;;;;10407146;28;20225;-69
2021/05/28 05:14:13;;;;;;;4.50;3.10;;;14.10;39.80;;;;;;10406611;28;20255;-69
2021/05/28 05:19:16;;;;;;;3.70;3.40;;;14.20;40.10;;;;;;10401852;28;20320;-69
2021/05/28 05:24:18;;;;;;;3.60;3.30;;;14.20;39.80;;;;;;10406456;28;20225;-69
2021/05/28 05:29:22;;;;;;;5.23;3.73;;;14.20;39.90;;;;;;10406775;28;20229;-68
2021/05/28 05:34:25;;;;;;;4.23;3.90;;;14.30;40.40;;;;;;10412423;28;20249;-68
2021/05/28 05:39:27;;;;;;;5.37;3.90;;;14.30;40.10;;;;;;10414352;28;20710;-69
2021/05/28 05:44:31;;;;;;;4.33;3.90;;;14.40;40.30;;;;;;10414123;28;20784;-69
2021/05/28 05:49:35;;;;;;;4.87;3.67;;;14.50;40.60;;;;;;10414079;28;20304;-68
2021/05/28 05:54:37;;;;;;;4.37;4.03;;;14.50;40.30;;;;;;10413923;28;20240;-68
2021/05/28 05:59:41;;;;;;;5.33;4.10;;;14.60;40.40;;;;;;10413637;28;20225;-69
2021/05/28 06:04:44;;;;;;;4.07;3.70;;;14.70;40.50;;;;;;10412847;28;20233;-68
2021/05/28 06:09:46;;;;;;;4.30;3.90;;;14.80;40.10;;;;;;10413351;28;20301;-69
2021/05/28 06:14:50;;;;;;;4.40;4.00;;;14.80;39.80;;;;;;10412937;28;20225;-68
2021/05/28 06:19:53;;;;;;;3.77;3.20;;;14.90;39.80;;;;;;10412617;28;20221;-68
2021/05/28 06:25:01;;;;;;;3.93;3.63;;;14.90;39.70;;;;;;10413042;28;20233;-69
2021/05/28 06:30:05;;;;;;;3.57;3.27;;;15.00;39.70;;;;;;10410268;28;20222;-68
2021/05/28 06:35:09;;;;;;;4.10;3.80;;;15.00;39.90;;;;;;10411815;28;20229;-68
2021/05/28 06:40:13;;;;;;;4.57;4.20;;;15.10;39.80;;;;;;10411141;28;20229;-69
2021/05/28 06:45:18;;;;;;;5.00;4.50;;;15.10;39.90;;;;;;10411845;28;20234;-69
2021/05/28 06:50:21;;;;;;;4.47;4.07;;;15.10;39.90;;;;;;10411372;28;20230;-66
2021/05/28 06:55:23;;;;;;;4.47;4.07;;;15.20;39.90;;;;;;10411523;28;20317;-68
2021/05/28 07:00:27;;;;;;;4.50;4.10;;;15.20;40.00;;;;;;10411508;28;20232;-68
2021/05/28 07:05:30;;;;;;;5.00;4.60;;;15.30;40.50;;;;;;10411013;28;20229;-68
2021/05/28 07:10:33;;;;;;;4.70;4.20;;;15.30;40.20;;;;;;10411063;28;20248;-69
2021/05/28 07:15:38;;;;;;;4.90;4.50;;;15.40;40.40;;;;;;10410601;28;20694;-69
2021/05/28 07:20:41;;;;;;;5.10;4.70;;;15.50;40.60;;;;;;10410379;28;20305;-69
2021/05/28 07:25:43;;;;;;;5.03;4.63;;;15.50;40.10;;;;;;10410310;28;20840;-68
2021/05/28 07:30:48;;;;;;;5.27;4.87;;;15.60;40.40;;;;;;10410439;28;20261;-68
2021/05/28 07:35:51;;;;;;;5.00;4.60;;;15.70;40.50;;;;;;10409943;28;20234;-68
2021/05/28 07:40:54;;;;;;;4.57;4.17;;;15.80;40.30;;;;;;10409599;28;20240;-67
2021/05/28 07:45:58;;;;;;;4.40;4.00;;;15.90;40.00;;;;;;10408171;28;20232;-69
2021/05/28 07:51:01;;;;;;;4.40;4.00;;;16.00;40.30;;;;;;10408777;28;20341;-68
2021/05/28 07:56:05;;;;;;;4.07;3.87;;;16.10;40.10;;;;;;10407982;28;20240;-69
2021/05/28 08:01:09;;;;;;;6.00;4.47;;;16.20;40.10;;;;;;10409149;28;20301;-69
2021/05/28 08:06:12;;;;;;;4.40;4.00;;;16.30;40.30;;;;;;10408664;28;20320;-69
2021/05/28 08:11:14;;;;;;;3.80;3.50;;;16.40;40.30;;;;;;10408424;28;20236;-69
2021/05/28 08:16:18;;;;;;;4.03;3.63;;;16.50;39.60;;;;;;10407611;28;20764;-69
2021/05/28 08:21:21;;;;;;;5.03;3.70;;;16.50;39.40;;;;;;10408250;28;20237;-69
2021/05/28 08:26:23;;;;;;;3.87;3.57;;;16.50;39.30;;;;;;10407941;28;20312;-69
2021/05/28 08:31:28;;;;;;;4.37;3.67;;;16.50;39.70;;;;;;10407978;28;20279;-69
2021/05/28 08:36:31;;;;;;;3.73;3.30;;;16.60;40.00;;;;;;10407604;28;20236;-69
2021/05/28 08:41:35;;;;;;;3.83;3.43;;;16.70;39.80;;;;;;10407684;28;20217;-69
2021/05/28 08:46:39;;;;;;;5.77;3.43;;;16.90;39.70;;;;;;10407306;28;20649;-69
2021/05/28 08:51:42;;;;;;;3.73;3.30;;;17.10;39.40;;;;;;10407238;28;20812;-70
2021/05/28 08:56:48;;;;;;;3.40;3.10;;;17.20;39.10;;;;;;10407117;28;20233;-69
2021/05/28 09:01:53;;;;;;;3.03;2.80;;;17.40;38.90;;;;;;10407016;28;20221;-70
2021/05/28 09:06:55;;;;;;;3.57;3.27;;;17.40;38.90;;;;;;10411020;28;20494;-69
2021/05/28 09:12:00;;;;;;;4.40;4.00;;;17.50;38.90;;;;;;10415731;28;20304;-69
2021/05/28 09:17:06;;;;;;;4.13;3.73;;;17.60;38.70;;;;;;10414513;28;20240;-69
2021/05/28 09:22:10;;;;;;;4.07;3.60;;;17.70;38.70;;;;;;10415230;28;20304;-69
2021/05/28 09:27:24;;;;;;;3.90;3.60;;;17.80;38.50;;;;;;10414745;28;20260;-69
2021/05/28 09:32:29;;;;;;;3.70;3.40;;;18.00;37.30;;;;;;10415304;28;20225;-69
2021/05/28 09:37:37;;;;;;;3.23;2.93;;;18.10;37.30;;;;;;10414498;28;20883;-70
2021/05/28 09:42:51;;;;;;;2.93;2.73;;;18.20;36.70;;;;;;10414361;28;20324;-69
2021/05/28 09:47:54;;;;;;;3.20;2.90;;;18.30;36.60;;;;;;10413826;28;20841;-68
2021/05/28 09:52:57;;;;;;;3.27;2.97;;;18.50;37.00;;;;;;10414028;28;20752;-69
2021/05/28 09:58:00;;;;;;;3.57;3.10;;;18.60;37.00;;;;;;10413295;28;20229;-69
2021/05/28 10:03:15;;;;;;;3.20;2.90;;;18.70;36.70;;;;;;10412590;28;20265;-69
2021/05/28 10:08:19;;;;;;;2.40;2.20;;;18.70;35.40;;;;;;10411720;28;20303;-69
2021/05/28 10:13:25;;;;;;;2.43;2.23;;;18.70;35.40;;;;;;10413267;28;20665;-69
2021/05/28 10:18:29;;;;;;;2.83;2.63;;;18.70;35.40;;;;;;10411409;28;20229;-69
2021/05/28 10:23:32;;;;;;;2.20;2.10;;;18.70;35.40;;;;;;10390221;28;20310;-67
2021/05/28 10:28:36;;;;;;;2.97;2.67;;;18.80;35.50;;;;;;10371541;28;20229;-67
2021/05/28 10:33:48;;;;;;;2.00;1.90;;;18.80;35.50;;;;;;10392640;28;20245;-67
2021/05/28 10:38:52;;;;;;;2.00;1.80;;;18.80;33.90;;;;;;10412283;28;20236;-67
2021/05/28 10:44:09;;;;;;;2.43;2.30;;;18.90;35.30;;;;;;10371829;28;20737;-70
2021/05/28 10:49:14;;;;;;;2.60;2.30;;;18.90;32.70;;;;;;10369312;28;20233;-69
2021/05/28 10:54:27;;;;;;;2.40;2.13;;;18.90;35.50;;;;;;10369530;28;20316;-69
2021/05/28 10:59:45;;;;;;;1.87;1.77;;;19.00;34.10;;;;;;10369153;28;20233;-70
2021/05/28 11:04:59;;;;;;;2.83;2.10;;;19.10;34.60;;;;;;10369931;28;20260;-70
2021/05/28 11:10:23;;;;;;;1.97;1.87;;;19.20;33.30;;;;;;10369703;28;20226;-70
2021/05/28 11:15:28;;;;;;;1.93;1.83;;;19.40;33.60;;;;;;10369546;28;20279;-69
2021/05/28 11:20:34;;;;;;;2.13;1.93;;;19.50;33.80;;;;;;10369702;28;20226;-69
2021/05/28 11:25:46;;;;;;;2.13;1.83;;;19.60;32.00;;;;;;10369770;28;20390;-70
2021/05/28 11:30:50;;;;;;;1.90;1.80;;;19.70;31.50;;;;;;10368255;28;20226;-69
2021/05/28 11:35:53;;;;;;;2.63;2.43;;;19.70;33.90;;;;;;10368801;28;20316;-69
2021/05/28 11:40:56;;;;;;;2.60;2.40;;;19.90;33.40;;;;;;10368965;28;20599;-69
2021/05/28 11:45:59;;;;;;;2.77;2.57;;;19.90;33.30;;;;;;10368683;28;20313;-69
2021/05/28 11:51:04;;;;;;;2.30;2.20;;;19.80;33.20;;;;;;10368494;28;20225;-70
2021/05/28 11:56:06;;;;;;;2.63;2.43;;;19.80;32.30;;;;;;10368012;28;20237;-69
2021/05/28 12:01:09;;;;;;;2.67;2.47;;;19.70;32.70;;;;;;10368043;28;20714;-70
2021/05/28 12:06:13;;;;;;;3.43;2.70;;;19.60;32.40;;;;;;10368120;28;20656;-69
2021/05/28 12:11:17;;;;;;;2.50;2.30;;;19.60;32.00;;;;;;10367854;28;20248;-69
2021/05/28 12:16:21;;;;;;;3.10;2.80;;;19.50;32.40;;;;;;10367534;28;20231;-70
2021/05/28 12:21:25;;;;;;;2.80;2.57;;;19.40;32.40;;;;;;10367462;28;20230;-69
2021/05/28 12:26:30;;;;;;;2.40;2.27;;;19.40;31.50;;;;;;10367352;28;20241;-70
2021/05/28 12:31:35;;;;;;;2.63;2.43;;;19.40;31.70;;;;;;10367026;28;20321;-70
2021/05/28 12:36:40;;;;;;;2.33;2.00;;;19.40;30.90;;;;;;10367036;28;20238;-70
2021/05/28 12:41:44;;;;;;;2.37;2.27;;;19.30;31.20;;;;;;10366494;28;20233;-70
2021/05/28 12:46:55;;;;;;;2.07;1.87;;;19.30;31.20;;;;;;10366705;28;20321;-70
2021/05/28 12:52:01;;;;;;;2.00;1.90;;;19.40;30.50;;;;;;10366548;28;20778;-69
2021/05/28 12:57:06;;;;;;;1.80;1.70;;;19.40;30.30;;;;;;10366001;28;20797;-69
2021/05/28 13:02:13;;;;;;;2.73;1.60;;;19.40;30.50;;;;;;10366085;28;20334;-69
2021/05/28 13:07:34;;;;;;;3.77;1.63;;;19.40;30.30;;;;;;10365963;28;20238;-70
2021/05/28 13:12:37;;;;;;;2.10;1.90;;;19.40;31.00;;;;;;10365782;28;20304;-69
2021/05/28 13:17:41;;;;;;;2.00;1.90;;;19.40;31.10;;;;;;10383383;28;20230;-69
2021/05/28 13:22:46;;;;;;;1.60;1.50;;;19.40;31.00;;;;;;10364342;28;20292;-69
2021/05/28 13:28:01;;;;;;;1.87;1.77;;;19.40;31.00;;;;;;10384280;28;20661;-68
2021/05/28 13:33:23;;;;;;;2.97;1.90;;;19.50;29.60;;;;;;10405930;28;20228;-69
2021/05/28 13:38:27;;;;;;;2.70;2.50;;;19.50;29.70;;;;;;10405441;28;20332;-68
2021/05/28 13:43:29;;;;;;;2.47;2.27;;;19.60;30.50;;;;;;10404940;28;20313;-69
2021/05/28 13:48:33;;;;;;;2.83;2.53;;;19.60;30.90;;;;;;10405067;28;20232;-70
2021/05/28 13:53:37;;;;;;;2.77;2.30;;;19.60;30.10;;;;;;10380163;28;20230;-69
2021/05/28 13:58:39;;;;;;;16.00;3.57;;;19.50;30.30;;;;;;10372648;28;20230;-69
2021/05/28 14:03:42;;;;;;;2.10;2.00;;;19.60;31.00;;;;;;10375959;28;20698;-69
2021/05/28 14:08:46;;;;;;;2.57;2.40;;;19.60;31.10;;;;;;10394218;28;20324;-70
2021/05/28 14:13:49;;;;;;;2.37;2.17;;;19.70;30.90;;;;;;10390040;28;20801;-70
2021/05/28 14:18:51;;;;;;;2.60;2.40;;;19.80;30.60;;;;;;10394769;28;20240;-70
2021/05/28 14:23:55;;;;;;;2.50;2.30;;;19.90;30.60;;;;;;10388999;28;20306;-70
2021/05/28 14:28:58;;;;;;;2.23;2.03;;;19.90;30.40;;;;;;10395993;28;20221;-70
2021/05/28 14:34:00;;;;;;;2.40;2.20;;;19.90;30.80;;;;;;10387796;28;20321;-70
2021/05/28 14:39:07;;;;;;;2.47;2.30;;;20.00;30.50;;;;;;10387525;28;20249;-69
2021/05/28 14:44:10;;;;;;;2.47;2.13;;;20.00;29.60;;;;;;10394271;28;20272;-68
2021/05/28 14:49:14;;;;;;;2.43;2.30;;;20.00;30.10;;;;;;10389114;28;20246;-68
2021/05/28 14:54:18;;;;;;;2.43;2.27;;;20.10;29.80;;;;;;10393290;28;20299;-69
2021/05/28 14:59:20;;;;;;;2.10;2.00;;;20.00;29.90;;;;;;10388974;28;20812;-68
2021/05/28 15:04:23;;;;;;;2.27;2.17;;;20.10;30.10;;;;;;10390596;28;20313;-69
2021/05/28 15:09:27;;;;;;;2.33;2.20;;;20.10;29.90;;;;;;10389590;28;20257;-69
2021/05/28 15:14:30;;;;;;;2.40;2.30;;;20.10;29.50;;;;;;10390526;28;20226;-71
2021/05/28 15:19:32;;;;;;;2.77;2.57;;;20.20;29.80;;;;;;10357620;28;20249;-76
2021/05/28 15:24:38;;;;;;;2.63;2.33;;;20.20;29.70;;;;;;10390048;28;20765;-75
2021/05/28 15:29:41;;;;;;;2.23;2.00;;;20.20;29.10;;;;;;10410736;28;20283;-76
2021/05/28 15:34:44;;;;;;;2.10;2.00;;;20.20;29.80;;;;;;10410659;28;20259;-76
2021/05/28 15:39:47;;;;;;;2.50;2.30;;;20.20;30.10;;;;;;10390319;28;20226;-74
2021/05/28 15:44:50;;;;;;;2.73;2.53;;;20.30;29.90;;;;;;10365968;28;20250;-74
2021/05/28 15:49:53;;;;;;;2.70;2.50;;;20.40;30.00;;;;;;10369935;28;20226;-74
2021/05/28 15:54:57;;;;;;;2.67;2.37;;;20.60;29.90;;;;;;10364626;28;20233;-73
2021/05/28 15:59:59;;;;;;;3.50;2.67;;;20.70;29.80;;;;;;10377057;28;20317;-75
2021/05/28 16:05:05;;;;;;;4.53;2.50;;;20.80;30.00;;;;;;10388169;28;20734;-74
2021/05/28 16:10:12;;;;;;;5.03;1.90;;;20.90;29.40;;;;;;10374337;28;20687;-73
2021/05/28 16:15:15;;;;;;;2.00;1.90;;;21.00;29.20;;;;;;10386472;28;20248;-71
2021/05/28 16:20:18;;;;;;;2.63;2.00;;;21.00;29.20;;;;;;10377619;28;20313;-74
2021/05/28 16:25:24;;;;;;;10.53;2.73;;;21.00;29.20;;;;;;10390755;28;20234;-73
2021/05/28 16:30:28;;;;;;;94.13;8.03;;;21.00;28.60;;;;;;10389610;28;20222;-73
2021/05/28 16:35:31;;;;;;;3.33;1.90;;;21.00;29.00;;;;;;10373309;28;20234;-73
2021/05/28 16:40:35;;;;;;;2.73;1.50;;;21.00;28.90;;;;;;10402938;28;20698;-73
2021/05/28 16:45:38;;;;;;;3.17;1.53;;;21.00;28.70;;;;;;10397145;28;20781;-75
2021/05/28 16:56:07;;;;;;;1.60;1.40;;;20.90;28.70;;;;;;10403326;28;20316;-72
2021/05/28 17:01:10;;;;;;;1.83;1.57;;;20.90;28.60;;;;;;10407316;28;20328;-71
2021/05/28 17:06:13;;;;;;;1.47;1.33;;;20.80;28.60;;;;;;10407155;28;20233;-72
2021/05/28 17:11:16;;;;;;;1.40;1.30;;;20.80;28.50;;;;;;10406855;28;20256;-72
2021/05/28 17:16:20;;;;;;;2.33;1.50;;;20.70;28.40;;;;;;10406586;28;20237;-72
2021/05/28 17:21:23;;;;;;;1.80;1.23;;;20.60;28.20;;;;;;10407104;28;20221;-72
2021/05/28 17:26:27;;;;;;;1.33;1.23;;;20.60;27.80;;;;;;10406847;28;20231;-73
2021/05/28 17:31:30;;;;;;;1.27;1.20;;;20.50;27.50;;;;;;10387809;28;20256;-72
2021/05/28 17:36:33;;;;;;;1.50;1.40;;;20.40;27.90;;;;;;10373281;28;20226;-71
2021/05/28 17:41:37;;;;;;;1.20;1.10;;;20.30;27.80;;;;;;10378347;28;20225;-71
2021/05/28 17:46:40;;;;;;;1.80;1.70;;;20.20;27.90;;;;;;10373402;28;20605;-72
2021/05/28 17:51:42;;;;;;;1.47;1.37;;;20.10;28.10;;;;;;10406621;28;20227;-74
2021/05/28 17:56:46;;;;;;;1.70;1.40;;;19.90;28.50;;;;;;10372890;28;20244;-72
2021/05/28 18:01:49;;;;;;;1.43;1.33;;;19.80;28.80;;;;;;10381979;28;20237;-73
2021/05/28 18:06:52;;;;;;;1.30;1.20;;;19.60;29.00;;;;;;10401880;28;21144;-74
2021/05/28 18:11:56;;;;;;;1.47;1.10;;;19.60;29.20;;;;;;10374181;28;20226;-69
2021/05/28 18:16:59;;;;;;;1.50;1.40;;;19.50;29.30;;;;;;10371184;28;20317;-69
2021/05/28 18:22:02;;;;;;;2.63;1.50;;;19.40;29.30;;;;;;10371592;28;20300;-69
2021/05/28 18:27:06;;;;;;;1.50;1.40;;;19.40;29.40;;;;;;10371676;28;20728;-70
2021/05/28 18:32:09;;;;;;;3.03;1.80;;;19.40;29.70;;;;;;10371298;28;20317;-69
2021/05/28 18:37:12;;;;;;;1.67;1.30;;;19.30;29.70;;;;;;10371212;28;20228;-69
2021/05/28 18:42:16;;;;;;;1.30;1.20;;;19.30;29.80;;;;;;10370609;28;20230;-69
2021/05/28 18:47:19;;;;;;;1.53;1.43;;;19.20;29.90;;;;;;10370999;28;20736;-69
2021/05/28 18:52:22;;;;;;;1.87;1.23;;;19.20;29.90;;;;;;10370684;28;20230;-69
2021/05/28 18:57:26;;;;;;;2.07;1.20;;;19.20;30.00;;;;;;10370704;28;20230;-69
2021/05/28 19:02:28;;;;;;;2.20;1.40;;;19.20;30.00;;;;;;10368949;28;20303;-69
2021/05/28 19:07:31;;;;;;;1.10;1.10;;;19.20;30.10;;;;;;10368444;28;20236;-69
2021/05/28 19:12:35;;;;;;;1.87;1.40;;;19.10;30.00;;;;;;10370244;28;20256;-69
2021/05/28 19:17:39;;;;;;;1.40;1.20;;;19.10;30.10;;;;;;10369842;28;20305;-69
2021/05/28 19:22:42;;;;;;;2.80;1.13;;;19.10;30.10;;;;;;10369654;28;20218;-69
2021/05/28 19:27:48;;;;;;;1.40;1.30;;;19.00;30.10;;;;;;10369241;28;20723;-69
2021/05/28 19:32:51;;;;;;;1.30;1.10;;;19.00;30.30;;;;;;10369275;28;20278;-69
2021/05/28 19:37:54;;;;;;;1.10;1.10;;;19.00;30.10;;;;;;10368999;28;20306;-69
2021/05/28 19:42:59;;;;;;;1.53;1.30;;;18.90;30.20;;;;;;10369013;28;20230;-69
2021/05/28 19:48:04;;;;;;;1.30;1.20;;;18.90;30.30;;;;;;10367481;28;20313;-68
2021/05/28 19:53:18;;;;;;;1.27;1.27;;;18.80;30.50;;;;;;10363003;28;20230;-69
2021/05/28 19:58:24;;;;;;;2.03;1.40;;;18.80;30.60;;;;;;10360705;28;20254;-69
2021/05/28 20:03:27;;;;;;;1.97;1.77;;;18.70;30.60;;;;;;10361440;28;20232;-69
2021/05/28 20:08:30;;;;;;;1.50;1.40;;;18.70;30.60;;;;;;10360314;28;20291;-69
2021/05/28 20:18:56;;;;;;;2.47;1.40;;;18.50;30.60;;;;;;10362859;28;20438;-71
2021/05/28 20:24:01;;;;;;;1.37;1.27;;;18.50;30.70;;;;;;10365957;28;20237;-70
2021/05/28 20:29:06;;;;;;;1.40;1.30;;;18.30;30.60;;;;;;10365700;28;20272;-70
2021/05/28 20:34:11;;;;;;;1.33;1.20;;;18.30;30.90;;;;;;10366964;28;20257;-71
2021/05/28 20:39:14;;;;;;;1.63;1.20;;;18.20;31.60;;;;;;10365086;28;20230;-70
2021/05/28 20:44:17;;;;;;;1.10;1.10;;;18.20;31.00;;;;;;10365912;28;20230;-71
2021/05/28 20:49:21;;;;;;;3.00;1.23;;;18.10;31.00;;;;;;10366751;28;20747;-71
2021/05/28 20:54:24;;;;;;;1.50;1.40;;;18.00;31.00;;;;;;10367198;28;20746;-71
2021/05/28 20:59:27;;;;;;;1.37;1.30;;;18.00;31.10;;;;;;10366300;28;20253;-71
2021/05/28 21:04:49;;;;;;;1.27;1.20;;;17.90;31.40;;;;;;10405727;28;20652;-71
2021/05/28 21:09:51;;;;;;;2.10;1.90;;;17.80;31.40;;;;;;10406573;28;20221;-70
2021/05/28 21:14:55;;;;;;;2.67;2.47;;;17.80;31.30;;;;;;10406641;28;20225;-70
2021/05/28 21:19:58;;;;;;;3.77;3.47;;;17.70;31.60;;;;;;10391744;28;20226;-71
2021/05/28 21:25:01;;;;;;;3.30;3.10;;;17.50;31.70;;;;;;10387259;28;20236;-71
2021/05/28 21:30:08;;;;;;;4.13;3.83;;;17.50;31.70;;;;;;10387536;28;20226;-71
2021/05/28 21:35:13;;;;;;;4.30;3.90;;;17.40;32.20;;;;;;10375800;28;20261;-71
2021/05/28 21:40:16;;;;;;;2.97;2.77;;;17.30;31.90;;;;;;10382948;28;20233;-71
2021/05/28 21:45:20;;;;;;;2.90;2.70;;;17.10;32.00;;;;;;10385288;28;20234;-71
2021/05/28 21:50:25;;;;;;;2.20;2.10;;;17.00;32.40;;;;;;10390704;28;20233;-71
2021/05/28 21:55:28;;;;;;;2.73;1.87;;;17.00;32.40;;;;;;10384772;28;20226;-71
2021/05/28 22:00:36;;;;;;;2.17;1.97;;;17.00;32.60;;;;;;10387725;28;20288;-71
2021/05/28 22:05:38;;;;;;;2.20;1.90;;;17.00;32.90;;;;;;10383198;28;20229;-71
2021/05/28 22:10:42;;;;;;;1.80;1.70;;;17.00;32.80;;;;;;10381277;28;20221;-71
2021/05/28 22:15:46;;;;;;;4.13;2.33;;;17.00;32.90;;;;;;10382749;28;20226;-71
2021/05/28 22:20:49;;;;;;;2.20;2.10;;;17.00;33.00;;;;;;10389338;28;20256;-71
2021/05/28 22:25:52;;;;;;;2.70;2.50;;;16.90;32.70;;;;;;10385263;28;20629;-71
2021/05/28 22:36:13;;;;;;;3.83;3.13;;;16.70;32.90;;;;;;10362784;28;20687;-70
2021/05/28 22:41:16;;;;;;;4.87;3.37;;;16.60;32.90;;;;;;10381624;28;20245;-71
2021/05/28 22:46:29;;;;;;;3.23;3.03;;;16.50;33.20;;;;;;10389395;28;20329;-71
2021/05/28 22:51:33;;;;;;;3.60;3.30;;;16.50;33.40;;;;;;10387421;28;20222;-71
2021/05/28 22:56:37;;;;;;;3.93;3.63;;;16.50;33.40;;;;;;10382293;28;20646;-71
2021/05/28 23:01:41;;;;;;;3.13;2.90;;;16.40;33.30;;;;;;10382060;28;20232;-71
2021/05/28 23:06:44;;;;;;;6.53;5.87;;;16.30;33.30;;;;;;10383116;28;20230;-71
2021/05/28 23:17:08;;;;;;;4.20;3.90;;;16.10;33.10;;;;;;10381639;28;20234;-71
2021/05/28 23:22:11;;;;;;;2.70;2.50;;;16.10;33.40;;;;;;10385533;28;20237;-71
2021/05/28 23:27:13;;;;;;;3.10;2.90;;;16.10;33.10;;;;;;10382895;28;20234;-71
2021/05/28 23:32:17;;;;;;;2.77;2.57;;;16.10;33.10;;;;;;10384347;28;20235;-71
2021/05/28 23:37:20;;;;;;;3.37;3.00;;;15.90;33.30;;;;;;10378477;28;20304;-71
2021/05/28 23:42:30;;;;;;;3.10;2.87;;;15.80;33.40;;;;;;10379954;28;20236;-71
2021/05/28 23:47:34;;;;;;;4.17;3.87;;;15.60;33.40;;;;;;10385479;28;20729;-71
2021/05/28 23:52:38;;;;;;;3.50;3.20;;;15.60;34.30;;;;;;10383002;28;20235;-71
2021/05/28 23:57:42;;;;;;;3.23;2.80;;;15.60;34.00;;;;;;10380482;28;20228;-71
